sensor_id;sensor_type;location;lat;lon;timestamp;P1;durP1;ratioP1;P2;durP2;ratioP2
65145;SDS011;51730;56.950;24.126;2022-10-16T00:01:07;24.15;;;16.67;;
65145;SDS011;51730;56.950;24.126;2022-10-16T00:03:35;27.92;;;16.80;;
65145;SDS011;51730;56.950;24.126;2022-10-16T00:06:03;25.80;;;16.30;;
65145;SDS011;51730;56.950;24.126;2022-10-16T00:08:31;25.35;;;15.93;;
65145;SDS011;51730;56.950;24.126;2022-10-16T00:10:59;28.70;;;16.17;;
65145;SDS011;51730;56.950;24.126;2022-10-16T00:13:31;24.42;;;16.60;;
65145;SDS011;51730;56.950;24.126;2022-10-16T00:15:59;27.77;;;16.50;;
65145;SDS011;51730;56.950;24.126;2022-10-16T00:18:27;34.17;;;21.75;;
65145;SDS011;51730;56.950;24.126;2022-10-16T00:20:55;31.67;;;18.55;;
65145;SDS011;51730;56.950;24.126;2022-10-16T00:23:22;27.67;;;17.23;;
65145;SDS011;51730;56.950;24.126;2022-10-16T00:25:56;30.33;;;17.08;;
65145;SDS011;51730;56.950;24.126;2022-10-16T00:28:24;22.10;;;14.93;;
65145;SDS011;51730;56.950;24.126;2022-10-16T00:30:52;22.70;;;15.98;;
65145;SDS011;51730;56.950;24.126;2022-10-16T00:33:19;28.98;;;17.08;;
65145;SDS011;51730;56.950;24.126;2022-10-16T00:35:47;23.60;;;16.08;;
65145;SDS011;51730;56.950;24.126;2022-10-16T00:38:14;22.73;;;16.35;;
65145;SDS011;51730;56.950;24.126;2022-10-16T00:40:41;29.75;;;16.80;;
65145;SDS011;51730;56.950;24.126;2022-10-16T00:43:32;25.58;;;16.42;;
65145;SDS011;51730;56.950;24.126;2022-10-16T00:45:58;28.88;;;17.35;;
65145;SDS011;51730;56.950;24.126;2022-10-16T00:48:26;24.23;;;15.77;;
65145;SDS011;51730;56.950;24.126;2022-10-16T00:50:53;29.83;;;19.88;;
65145;SDS011;51730;56.950;24.126;2022-10-16T00:53:21;34.38;;;20.67;;
65145;SDS011;51730;56.950;24.126;2022-10-16T00:55:48;32.55;;;18.42;;
65145;SDS011;51730;56.950;24.126;2022-10-16T00:58:15;29.67;;;16.55;;
65145;SDS011;51730;56.950;24.126;2022-10-16T01:00:42;27.25;;;17.15;;
65145;SDS011;51730;56.950;24.126;2022-10-16T01:09:10;33.67;;;16.85;;
65145;SDS011;51730;56.950;24.126;2022-10-16T01:14:26;27.27;;;16.38;;
65145;SDS011;51730;56.950;24.126;2022-10-16T01:17:16;27.20;;;16.88;;
65145;SDS011;51730;56.950;24.126;2022-10-16T01:22:55;27.02;;;15.68;;
65145;SDS011;51730;56.950;24.126;2022-10-16T01:25:39;27.98;;;16.23;;
65145;SDS011;51730;56.950;24.126;2022-10-16T01:28:13;25.77;;;16.77;;
65145;SDS011;51730;56.950;24.126;2022-10-16T01:30:44;28.65;;;17.13;;
65145;SDS011;51730;56.950;24.126;2022-10-16T01:33:20;26.67;;;17.52;;
65145;SDS011;51730;56.950;24.126;2022-10-16T01:35:54;26.08;;;16.58;;
65145;SDS011;51730;56.950;24.126;2022-10-16T01:38:32;27.10;;;17.50;;
65145;SDS011;51730;56.950;24.126;2022-10-16T01:41:21;26.23;;;17.58;;
65145;SDS011;51730;56.950;24.126;2022-10-16T01:43:53;28.50;;;18.05;;
65145;SDS011;51730;56.950;24.126;2022-10-16T01:46:30;26.52;;;18.15;;
65145;SDS011;51730;56.950;24.126;2022-10-16T01:48:59;31.42;;;18.65;;
65145;SDS011;51730;56.950;24.126;2022-10-16T01:51:28;29.40;;;18.15;;
65145;SDS011;51730;56.950;24.126;2022-10-16T01:53:57;28.02;;;18.27;;
65145;SDS011;51730;56.950;24.126;2022-10-16T01:56:26;26.25;;;17.60;;
65145;SDS011;51730;56.950;24.126;2022-10-16T01:58:55;28.58;;;19.15;;
65145;SDS011;51730;56.950;24.126;2022-10-16T02:01:30;32.75;;;19.00;;
65145;SDS011;51730;56.950;24.126;2022-10-16T02:04:03;32.88;;;19.88;;
65145;SDS011;51730;56.950;24.126;2022-10-16T02:06:38;31.98;;;19.63;;
65145;SDS011;51730;56.950;24.126;2022-10-16T02:09:05;33.65;;;19.70;;
65145;SDS011;51730;56.950;24.126;2022-10-16T02:11:32;32.83;;;20.95;;
65145;SDS011;51730;56.950;24.126;2022-10-16T02:14:01;30.60;;;19.95;;
65145;SDS011;51730;56.950;24.126;2022-10-16T02:19:11;33.90;;;19.77;;
65145;SDS011;51730;56.950;24.126;2022-10-16T02:21:43;33.55;;;20.98;;
65145;SDS011;51730;56.950;24.126;2022-10-16T02:29:47;33.47;;;21.02;;
65145;SDS011;51730;56.950;24.126;2022-10-16T02:32:21;37.25;;;21.58;;
65145;SDS011;51730;56.950;24.126;2022-10-16T02:34:51;35.58;;;20.67;;
65145;SDS011;51730;56.950;24.126;2022-10-16T02:37:18;32.03;;;20.17;;
65145;SDS011;51730;56.950;24.126;2022-10-16T02:39:45;34.97;;;20.38;;
65145;SDS011;51730;56.950;24.126;2022-10-16T02:42:12;33.60;;;20.08;;
65145;SDS011;51730;56.950;24.126;2022-10-16T02:44:40;37.42;;;20.92;;
65145;SDS011;51730;56.950;24.126;2022-10-16T02:47:07;35.53;;;21.25;;
65145;SDS011;51730;56.950;24.126;2022-10-16T02:49:34;36.55;;;21.98;;
65145;SDS011;51730;56.950;24.126;2022-10-16T02:52:01;38.28;;;22.75;;
65145;SDS011;51730;56.950;24.126;2022-10-16T02:54:28;39.10;;;22.10;;
65145;SDS011;51730;56.950;24.126;2022-10-16T02:56:55;39.22;;;21.63;;
65145;SDS011;51730;56.950;24.126;2022-10-16T02:59:21;32.78;;;21.52;;
65145;SDS011;51730;56.950;24.126;2022-10-16T03:01:48;41.03;;;23.98;;
65145;SDS011;51730;56.950;24.126;2022-10-16T03:04:15;35.45;;;22.75;;
65145;SDS011;51730;56.950;24.126;2022-10-16T03:06:42;35.85;;;22.42;;
65145;SDS011;51730;56.950;24.126;2022-10-16T03:09:09;36.53;;;21.65;;
65145;SDS011;51730;56.950;24.126;2022-10-16T03:11:36;38.50;;;22.70;;
65145;SDS011;51730;56.950;24.126;2022-10-16T03:14:02;35.83;;;21.33;;
65145;SDS011;51730;56.950;24.126;2022-10-16T03:16:29;36.78;;;21.25;;
65145;SDS011;51730;56.950;24.126;2022-10-16T03:18:56;40.25;;;23.05;;
65145;SDS011;51730;56.950;24.126;2022-10-16T03:21:23;34.25;;;22.38;;
65145;SDS011;51730;56.950;24.126;2022-10-16T03:23:51;38.25;;;22.00;;
65145;SDS011;51730;56.950;24.126;2022-10-16T03:26:17;35.83;;;23.75;;
65145;SDS011;51730;56.950;24.126;2022-10-16T03:28:44;34.10;;;21.27;;
65145;SDS011;51730;56.950;24.126;2022-10-16T03:31:11;39.83;;;23.48;;
65145;SDS011;51730;56.950;24.126;2022-10-16T03:33:38;41.70;;;23.60;;
65145;SDS011;51730;56.950;24.126;2022-10-16T03:36:05;39.35;;;23.67;;
65145;SDS011;51730;56.950;24.126;2022-10-16T03:38:32;38.78;;;22.92;;
65145;SDS011;51730;56.950;24.126;2022-10-16T03:40:59;39.92;;;22.65;;
65145;SDS011;51730;56.950;24.126;2022-10-16T03:43:26;41.15;;;22.73;;
65145;SDS011;51730;56.950;24.126;2022-10-16T03:45:53;39.83;;;22.55;;
65145;SDS011;51730;56.950;24.126;2022-10-16T03:48:20;42.03;;;23.50;;
65145;SDS011;51730;56.950;24.126;2022-10-16T03:50:47;39.55;;;23.75;;
65145;SDS011;51730;56.950;24.126;2022-10-16T03:53:14;38.80;;;23.05;;
65145;SDS011;51730;56.950;24.126;2022-10-16T03:55:42;41.80;;;23.70;;
65145;SDS011;51730;56.950;24.126;2022-10-16T03:58:09;41.75;;;24.25;;
65145;SDS011;51730;56.950;24.126;2022-10-16T04:00:43;41.40;;;23.10;;
65145;SDS011;51730;56.950;24.126;2022-10-16T04:03:11;41.35;;;23.52;;
65145;SDS011;51730;56.950;24.126;2022-10-16T04:05:38;40.50;;;24.02;;
65145;SDS011;51730;56.950;24.126;2022-10-16T04:08:05;37.95;;;22.70;;
65145;SDS011;51730;56.950;24.126;2022-10-16T04:10:32;38.63;;;23.73;;
65145;SDS011;51730;56.950;24.126;2022-10-16T04:13:00;39.20;;;23.05;;
65145;SDS011;51730;56.950;24.126;2022-10-16T04:15:27;41.78;;;23.58;;
65145;SDS011;51730;56.950;24.126;2022-10-16T04:17:53;39.28;;;23.80;;
65145;SDS011;51730;56.950;24.126;2022-10-16T04:20:20;38.55;;;23.02;;
65145;SDS011;51730;56.950;24.126;2022-10-16T04:22:47;35.28;;;22.42;;
65145;SDS011;51730;56.950;24.126;2022-10-16T04:25:14;39.00;;;23.33;;
65145;SDS011;51730;56.950;24.126;2022-10-16T04:27:41;41.03;;;24.48;;
65145;SDS011;51730;56.950;24.126;2022-10-16T04:30:11;38.53;;;23.90;;
65145;SDS011;51730;56.950;24.126;2022-10-16T04:32:39;40.33;;;23.98;;
65145;SDS011;51730;56.950;24.126;2022-10-16T04:35:06;41.15;;;21.17;;
65145;SDS011;51730;56.950;24.126;2022-10-16T04:37:33;41.10;;;23.73;;
65145;SDS011;51730;56.950;24.126;2022-10-16T04:40:00;39.92;;;23.38;;
65145;SDS011;51730;56.950;24.126;2022-10-16T04:42:27;40.25;;;23.38;;
65145;SDS011;51730;56.950;24.126;2022-10-16T04:44:54;35.70;;;22.27;;
65145;SDS011;51730;56.950;24.126;2022-10-16T04:47:21;41.65;;;23.25;;
65145;SDS011;51730;56.950;24.126;2022-10-16T04:49:48;45.25;;;24.05;;
65145;SDS011;51730;56.950;24.126;2022-10-16T04:52:14;39.67;;;24.60;;
65145;SDS011;51730;56.950;24.126;2022-10-16T04:54:42;44.00;;;24.02;;
65145;SDS011;51730;56.950;24.126;2022-10-16T04:57:11;42.33;;;23.35;;
65145;SDS011;51730;56.950;24.126;2022-10-16T04:59:38;39.78;;;22.88;;
65145;SDS011;51730;56.950;24.126;2022-10-16T05:02:05;41.03;;;23.17;;
65145;SDS011;51730;56.950;24.126;2022-10-16T05:04:32;39.88;;;21.98;;
65145;SDS011;51730;56.950;24.126;2022-10-16T05:06:58;43.97;;;23.50;;
65145;SDS011;51730;56.950;24.126;2022-10-16T05:09:25;42.45;;;24.77;;
65145;SDS011;51730;56.950;24.126;2022-10-16T05:11:52;44.60;;;25.20;;
65145;SDS011;51730;56.950;24.126;2022-10-16T05:14:19;43.03;;;23.85;;
65145;SDS011;51730;56.950;24.126;2022-10-16T05:16:46;46.67;;;24.85;;
65145;SDS011;51730;56.950;24.126;2022-10-16T05:19:14;47.15;;;25.45;;
65145;SDS011;51730;56.950;24.126;2022-10-16T05:21:52;45.95;;;26.00;;
65145;SDS011;51730;56.950;24.126;2022-10-16T05:24:19;48.10;;;25.00;;
65145;SDS011;51730;56.950;24.126;2022-10-16T05:26:46;47.03;;;25.83;;
65145;SDS011;51730;56.950;24.126;2022-10-16T05:29:13;49.60;;;25.73;;
65145;SDS011;51730;56.950;24.126;2022-10-16T05:31:40;49.00;;;25.67;;
65145;SDS011;51730;56.950;24.126;2022-10-16T05:34:07;53.53;;;26.88;;
65145;SDS011;51730;56.950;24.126;2022-10-16T05:36:34;53.60;;;28.05;;
65145;SDS011;51730;56.950;24.126;2022-10-16T05:39:01;57.25;;;28.63;;
65145;SDS011;51730;56.950;24.126;2022-10-16T05:41:28;57.45;;;28.58;;
65145;SDS011;51730;56.950;24.126;2022-10-16T05:43:55;59.97;;;29.73;;
65145;SDS011;51730;56.950;24.126;2022-10-16T05:46:22;60.65;;;30.50;;
65145;SDS011;51730;56.950;24.126;2022-10-16T05:48:51;60.63;;;31.00;;
65145;SDS011;51730;56.950;24.126;2022-10-16T05:51:19;71.45;;;33.40;;
65145;SDS011;51730;56.950;24.126;2022-10-16T05:53:46;81.30;;;40.90;;
65145;SDS011;51730;56.950;24.126;2022-10-16T05:56:13;59.88;;;31.77;;
65145;SDS011;51730;56.950;24.126;2022-10-16T05:58:40;62.55;;;30.90;;
65145;SDS011;51730;56.950;24.126;2022-10-16T06:01:10;62.50;;;29.83;;
65145;SDS011;51730;56.950;24.126;2022-10-16T06:03:38;61.25;;;31.40;;
65145;SDS011;51730;56.950;24.126;2022-10-16T06:06:12;60.72;;;30.52;;
65145;SDS011;51730;56.950;24.126;2022-10-16T06:08:41;66.15;;;32.63;;
65145;SDS011;51730;56.950;24.126;2022-10-16T06:11:10;64.20;;;31.50;;
65145;SDS011;51730;56.950;24.126;2022-10-16T06:13:38;60.45;;;30.58;;
65145;SDS011;51730;56.950;24.126;2022-10-16T06:16:09;63.40;;;31.45;;
65145;SDS011;51730;56.950;24.126;2022-10-16T06:18:37;68.18;;;32.10;;
65145;SDS011;51730;56.950;24.126;2022-10-16T06:21:08;66.35;;;32.15;;
65145;SDS011;51730;56.950;24.126;2022-10-16T06:23:37;54.25;;;29.42;;
65145;SDS011;51730;56.950;24.126;2022-10-16T06:26:05;63.63;;;30.80;;
65145;SDS011;51730;56.950;24.126;2022-10-16T06:28:36;56.78;;;31.13;;
65145;SDS011;51730;56.950;24.126;2022-10-16T06:31:04;57.22;;;32.05;;
65145;SDS011;51730;56.950;24.126;2022-10-16T06:33:33;60.08;;;31.88;;
65145;SDS011;51730;56.950;24.126;2022-10-16T06:36:08;59.50;;;31.77;;
65145;SDS011;51730;56.950;24.126;2022-10-16T06:38:37;60.10;;;32.25;;
65145;SDS011;51730;56.950;24.126;2022-10-16T06:41:05;56.20;;;31.65;;
65145;SDS011;51730;56.950;24.126;2022-10-16T06:43:33;56.63;;;31.08;;
65145;SDS011;51730;56.950;24.126;2022-10-16T06:46:03;61.70;;;32.50;;
65145;SDS011;51730;56.950;24.126;2022-10-16T06:48:34;57.97;;;31.08;;
65145;SDS011;51730;56.950;24.126;2022-10-16T06:51:02;55.78;;;31.67;;
65145;SDS011;51730;56.950;24.126;2022-10-16T06:53:37;57.80;;;31.58;;
65145;SDS011;51730;56.950;24.126;2022-10-16T06:56:27;56.72;;;31.05;;
65145;SDS011;51730;56.950;24.126;2022-10-16T06:58:55;64.07;;;36.78;;
65145;SDS011;51730;56.950;24.126;2022-10-16T07:01:23;97.32;;;52.03;;
65145;SDS011;51730;56.950;24.126;2022-10-16T07:03:51;64.43;;;33.88;;
65145;SDS011;51730;56.950;24.126;2022-10-16T07:06:19;60.53;;;31.70;;
65145;SDS011;51730;56.950;24.126;2022-10-16T07:08:48;66.15;;;33.42;;
65145;SDS011;51730;56.950;24.126;2022-10-16T07:11:15;66.22;;;33.50;;
65145;SDS011;51730;56.950;24.126;2022-10-16T07:13:44;62.88;;;33.03;;
65145;SDS011;51730;56.950;24.126;2022-10-16T07:16:20;65.95;;;34.15;;
65145;SDS011;51730;56.950;24.126;2022-10-16T07:18:49;62.17;;;32.33;;
65145;SDS011;51730;56.950;24.126;2022-10-16T07:21:21;65.65;;;33.05;;
65145;SDS011;51730;56.950;24.126;2022-10-16T07:23:52;63.17;;;32.75;;
65145;SDS011;51730;56.950;24.126;2022-10-16T07:28:48;65.25;;;31.45;;
65145;SDS011;51730;56.950;24.126;2022-10-16T07:31:16;60.60;;;34.45;;
65145;SDS011;51730;56.950;24.126;2022-10-16T07:33:44;67.47;;;33.55;;
65145;SDS011;51730;56.950;24.126;2022-10-16T07:36:14;71.28;;;35.00;;
65145;SDS011;51730;56.950;24.126;2022-10-16T07:38:42;72.75;;;34.58;;
65145;SDS011;51730;56.950;24.126;2022-10-16T07:41:11;68.28;;;34.40;;
65145;SDS011;51730;56.950;24.126;2022-10-16T07:43:39;65.60;;;35.40;;
65145;SDS011;51730;56.950;24.126;2022-10-16T07:46:06;65.72;;;33.92;;
65145;SDS011;51730;56.950;24.126;2022-10-16T07:48:33;70.50;;;34.47;;
65145;SDS011;51730;56.950;24.126;2022-10-16T07:51:01;65.40;;;33.25;;
65145;SDS011;51730;56.950;24.126;2022-10-16T07:53:30;60.85;;;32.63;;
65145;SDS011;51730;56.950;24.126;2022-10-16T07:55:58;65.97;;;33.72;;
65145;SDS011;51730;56.950;24.126;2022-10-16T07:58:26;67.90;;;33.92;;
65145;SDS011;51730;56.950;24.126;2022-10-16T08:00:54;60.47;;;32.47;;
65145;SDS011;51730;56.950;24.126;2022-10-16T08:03:22;61.90;;;32.80;;
65145;SDS011;51730;56.950;24.126;2022-10-16T08:05:49;57.17;;;32.67;;
65145;SDS011;51730;56.950;24.126;2022-10-16T08:08:17;59.20;;;33.17;;
65145;SDS011;51730;56.950;24.126;2022-10-16T08:10:44;64.40;;;34.10;;
65145;SDS011;51730;56.950;24.126;2022-10-16T08:13:11;62.13;;;33.45;;
65145;SDS011;51730;56.950;24.126;2022-10-16T08:15:44;55.67;;;31.75;;
65145;SDS011;51730;56.950;24.126;2022-10-16T08:18:12;56.47;;;30.35;;
65145;SDS011;51730;56.950;24.126;2022-10-16T08:20:41;56.83;;;32.17;;
65145;SDS011;51730;56.950;24.126;2022-10-16T08:23:12;56.80;;;30.45;;
65145;SDS011;51730;56.950;24.126;2022-10-16T08:25:41;54.80;;;30.23;;
65145;SDS011;51730;56.950;24.126;2022-10-16T08:28:10;54.47;;;30.48;;
65145;SDS011;51730;56.950;24.126;2022-10-16T08:30:37;54.65;;;30.75;;
65145;SDS011;51730;56.950;24.126;2022-10-16T08:33:04;54.20;;;31.20;;
65145;SDS011;51730;56.950;24.126;2022-10-16T08:35:32;60.63;;;35.67;;
65145;SDS011;51730;56.950;24.126;2022-10-16T08:37:59;55.80;;;32.55;;
65145;SDS011;51730;56.950;24.126;2022-10-16T08:40:28;58.22;;;32.63;;
65145;SDS011;51730;56.950;24.126;2022-10-16T08:46:09;53.80;;;31.45;;
65145;SDS011;51730;56.950;24.126;2022-10-16T08:48:51;61.00;;;33.05;;
65145;SDS011;51730;56.950;24.126;2022-10-16T08:51:26;64.93;;;37.17;;
65145;SDS011;51730;56.950;24.126;2022-10-16T08:53:57;58.92;;;32.58;;
65145;SDS011;51730;56.950;24.126;2022-10-16T08:56:27;53.55;;;32.40;;
65145;SDS011;51730;56.950;24.126;2022-10-16T08:58:55;56.13;;;33.30;;
65145;SDS011;51730;56.950;24.126;2022-10-16T09:01:46;65.18;;;34.13;;
65145;SDS011;51730;56.950;24.126;2022-10-16T09:06:54;58.15;;;33.63;;
65145;SDS011;51730;56.950;24.126;2022-10-16T09:12:26;63.08;;;34.03;;
65145;SDS011;51730;56.950;24.126;2022-10-16T09:22:42;65.65;;;34.42;;
65145;SDS011;51730;56.950;24.126;2022-10-16T09:25:14;62.25;;;34.13;;
65145;SDS011;51730;56.950;24.126;2022-10-16T09:27:44;64.75;;;35.45;;
65145;SDS011;51730;56.950;24.126;2022-10-16T09:30:17;65.43;;;35.30;;
65145;SDS011;51730;56.950;24.126;2022-10-16T09:32:46;63.00;;;35.70;;
65145;SDS011;51730;56.950;24.126;2022-10-16T09:35:16;72.67;;;39.90;;
65145;SDS011;51730;56.950;24.126;2022-10-16T09:37:47;67.22;;;37.95;;
65145;SDS011;51730;56.950;24.126;2022-10-16T09:40:30;59.90;;;34.55;;
65145;SDS011;51730;56.950;24.126;2022-10-16T09:43:19;62.72;;;35.58;;
65145;SDS011;51730;56.950;24.126;2022-10-16T09:46:01;63.92;;;34.65;;
65145;SDS011;51730;56.950;24.126;2022-10-16T09:48:39;64.13;;;34.55;;
65145;SDS011;51730;56.950;24.126;2022-10-16T09:51:16;55.80;;;33.10;;
65145;SDS011;51730;56.950;24.126;2022-10-16T09:53:47;61.28;;;34.67;;
65145;SDS011;51730;56.950;24.126;2022-10-16T09:56:36;65.05;;;34.33;;
65145;SDS011;51730;56.950;24.126;2022-10-16T09:59:08;65.25;;;35.65;;
65145;SDS011;51730;56.950;24.126;2022-10-16T10:01:41;67.60;;;38.00;;
65145;SDS011;51730;56.950;24.126;2022-10-16T10:04:12;61.25;;;34.05;;
65145;SDS011;51730;56.950;24.126;2022-10-16T10:06:43;69.82;;;38.75;;
65145;SDS011;51730;56.950;24.126;2022-10-16T10:09:15;65.70;;;35.92;;
65145;SDS011;51730;56.950;24.126;2022-10-16T10:12:00;66.63;;;34.92;;
65145;SDS011;51730;56.950;24.126;2022-10-16T10:14:37;68.45;;;38.63;;
65145;SDS011;51730;56.950;24.126;2022-10-16T10:22:21;64.10;;;34.97;;
65145;SDS011;51730;56.950;24.126;2022-10-16T10:31:03;61.38;;;35.00;;
65145;SDS011;51730;56.950;24.126;2022-10-16T10:36:28;64.32;;;33.70;;
65145;SDS011;51730;56.950;24.126;2022-10-16T10:39:19;60.30;;;34.63;;
65145;SDS011;51730;56.950;24.126;2022-10-16T11:00:45;51.63;;;29.75;;
65145;SDS011;51730;56.950;24.126;2022-10-16T11:03:45;46.08;;;28.98;;
65145;SDS011;51730;56.950;24.126;2022-10-16T11:06:26;52.72;;;30.05;;
65145;SDS011;51730;56.950;24.126;2022-10-16T11:09:08;55.22;;;28.45;;
65145;SDS011;51730;56.950;24.126;2022-10-16T11:14:33;62.67;;;33.03;;
65145;SDS011;51730;56.950;24.126;2022-10-16T11:19:42;47.65;;;28.55;;
65145;SDS011;51730;56.950;24.126;2022-10-16T11:22:22;52.60;;;30.20;;
65145;SDS011;51730;56.950;24.126;2022-10-16T11:25:11;51.67;;;30.23;;
65145;SDS011;51730;56.950;24.126;2022-10-16T11:28:02;50.20;;;28.85;;
65145;SDS011;51730;56.950;24.126;2022-10-16T11:30:51;67.75;;;36.88;;
65145;SDS011;51730;56.950;24.126;2022-10-16T11:33:26;56.78;;;30.38;;
65145;SDS011;51730;56.950;24.126;2022-10-16T11:47:01;47.55;;;27.67;;
65145;SDS011;51730;56.950;24.126;2022-10-16T11:49:53;50.75;;;28.50;;
65145;SDS011;51730;56.950;24.126;2022-10-16T11:52:28;49.03;;;27.05;;
65145;SDS011;51730;56.950;24.126;2022-10-16T11:55:17;72.72;;;44.60;;
65145;SDS011;51730;56.950;24.126;2022-10-16T11:57:49;59.55;;;33.55;;
65145;SDS011;51730;56.950;24.126;2022-10-16T12:00:24;47.70;;;28.20;;
65145;SDS011;51730;56.950;24.126;2022-10-16T12:08:38;51.05;;;32.20;;
65145;SDS011;51730;56.950;24.126;2022-10-16T12:11:09;59.85;;;35.05;;
65145;SDS011;51730;56.950;24.126;2022-10-16T12:16:55;43.50;;;25.73;;
65145;SDS011;51730;56.950;24.126;2022-10-16T12:19:27;43.08;;;25.55;;
65145;SDS011;51730;56.950;24.126;2022-10-16T12:21:56;44.90;;;27.38;;
65145;SDS011;51730;56.950;24.126;2022-10-16T12:24:39;56.13;;;28.15;;
65145;SDS011;51730;56.950;24.126;2022-10-16T12:30:00;77.97;;;50.05;;
65145;SDS011;51730;56.950;24.126;2022-10-16T12:32:33;53.10;;;33.78;;
65145;SDS011;51730;56.950;24.126;2022-10-16T12:35:17;45.53;;;27.30;;
65145;SDS011;51730;56.950;24.126;2022-10-16T12:37:48;45.65;;;26.38;;
65145;SDS011;51730;56.950;24.126;2022-10-16T12:40:26;44.03;;;27.15;;
65145;SDS011;51730;56.950;24.126;2022-10-16T12:42:53;44.72;;;27.48;;
65145;SDS011;51730;56.950;24.126;2022-10-16T12:45:30;48.67;;;28.58;;
65145;SDS011;51730;56.950;24.126;2022-10-16T12:48:00;46.13;;;26.48;;
65145;SDS011;51730;56.950;24.126;2022-10-16T12:50:38;47.28;;;28.60;;
65145;SDS011;51730;56.950;24.126;2022-10-16T12:53:23;41.95;;;26.25;;
65145;SDS011;51730;56.950;24.126;2022-10-16T12:58:30;40.83;;;25.42;;
65145;SDS011;51730;56.950;24.126;2022-10-16T13:03:58;44.78;;;26.13;;
65145;SDS011;51730;56.950;24.126;2022-10-16T13:06:53;47.70;;;27.03;;
65145;SDS011;51730;56.950;24.126;2022-10-16T13:12:23;42.33;;;26.55;;
65145;SDS011;51730;56.950;24.126;2022-10-16T13:26:43;45.75;;;25.77;;
65145;SDS011;51730;56.950;24.126;2022-10-16T13:29:31;43.97;;;25.35;;
65145;SDS011;51730;56.950;24.126;2022-10-16T13:32:00;42.35;;;25.60;;
65145;SDS011;51730;56.950;24.126;2022-10-16T13:34:41;43.45;;;23.77;;
65145;SDS011;51730;56.950;24.126;2022-10-16T13:37:18;39.40;;;24.17;;
65145;SDS011;51730;56.950;24.126;2022-10-16T13:39:47;39.67;;;24.00;;
65145;SDS011;51730;56.950;24.126;2022-10-16T13:42:23;38.88;;;24.50;;
65145;SDS011;51730;56.950;24.126;2022-10-16T13:44:55;42.20;;;25.25;;
65145;SDS011;51730;56.950;24.126;2022-10-16T13:47:26;43.70;;;25.13;;
65145;SDS011;51730;56.950;24.126;2022-10-16T13:52:31;44.50;;;25.98;;
65145;SDS011;51730;56.950;24.126;2022-10-16T13:54:58;46.55;;;27.00;;
65145;SDS011;51730;56.950;24.126;2022-10-16T13:57:27;46.42;;;27.65;;
65145;SDS011;51730;56.950;24.126;2022-10-16T13:59:54;43.85;;;27.27;;
65145;SDS011;51730;56.950;24.126;2022-10-16T14:05:00;46.95;;;27.40;;
65145;SDS011;51730;56.950;24.126;2022-10-16T14:07:31;40.70;;;26.23;;
65145;SDS011;51730;56.950;24.126;2022-10-16T14:10:06;47.90;;;28.67;;
65145;SDS011;51730;56.950;24.126;2022-10-16T14:12:53;63.60;;;39.97;;
65145;SDS011;51730;56.950;24.126;2022-10-16T14:15:29;46.70;;;29.48;;
65145;SDS011;51730;56.950;24.126;2022-10-16T14:17:57;48.75;;;29.63;;
65145;SDS011;51730;56.950;24.126;2022-10-16T14:20:29;52.20;;;29.30;;
65145;SDS011;51730;56.950;24.126;2022-10-16T14:23:17;47.25;;;28.40;;
65145;SDS011;51730;56.950;24.126;2022-10-16T14:28:35;44.25;;;27.83;;
65145;SDS011;51730;56.950;24.126;2022-10-16T14:33:55;44.25;;;28.50;;
65145;SDS011;51730;56.950;24.126;2022-10-16T14:36:22;60.53;;;36.15;;
65145;SDS011;51730;56.950;24.126;2022-10-16T14:38:56;47.65;;;29.52;;
65145;SDS011;51730;56.950;24.126;2022-10-16T14:41:30;46.67;;;27.33;;
65145;SDS011;51730;56.950;24.126;2022-10-16T14:44:02;41.95;;;27.20;;
65145;SDS011;51730;56.950;24.126;2022-10-16T14:46:37;43.75;;;27.17;;
65145;SDS011;51730;56.950;24.126;2022-10-16T14:51:38;45.15;;;27.25;;
65145;SDS011;51730;56.950;24.126;2022-10-16T14:54:08;42.58;;;26.52;;
65145;SDS011;51730;56.950;24.126;2022-10-16T14:56:42;56.42;;;37.05;;
65145;SDS011;51730;56.950;24.126;2022-10-16T14:59:16;45.03;;;27.48;;
65145;SDS011;51730;56.950;24.126;2022-10-16T15:01:54;43.58;;;27.58;;
65145;SDS011;51730;56.950;24.126;2022-10-16T15:04:20;46.88;;;27.35;;
65145;SDS011;51730;56.950;24.126;2022-10-16T15:06:47;42.83;;;27.25;;
65145;SDS011;51730;56.950;24.126;2022-10-16T15:09:14;44.30;;;28.00;;
65145;SDS011;51730;56.950;24.126;2022-10-16T15:11:41;39.72;;;27.00;;
65145;SDS011;51730;56.950;24.126;2022-10-16T15:14:11;42.90;;;28.27;;
65145;SDS011;51730;56.950;24.126;2022-10-16T15:16:44;56.85;;;33.78;;
65145;SDS011;51730;56.950;24.126;2022-10-16T15:19:12;51.05;;;30.75;;
65145;SDS011;51730;56.950;24.126;2022-10-16T15:21:38;50.17;;;29.83;;
65145;SDS011;51730;56.950;24.126;2022-10-16T15:24:08;47.50;;;30.67;;
65145;SDS011;51730;56.950;24.126;2022-10-16T15:26:44;52.28;;;31.00;;
65145;SDS011;51730;56.950;24.126;2022-10-16T15:29:15;52.40;;;32.35;;
65145;SDS011;51730;56.950;24.126;2022-10-16T15:31:42;49.90;;;31.92;;
65145;SDS011;51730;56.950;24.126;2022-10-16T15:34:09;55.85;;;32.85;;
65145;SDS011;51730;56.950;24.126;2022-10-16T15:36:37;52.78;;;32.33;;
65145;SDS011;51730;56.950;24.126;2022-10-16T15:39:05;52.45;;;32.45;;
65145;SDS011;51730;56.950;24.126;2022-10-16T15:41:38;57.25;;;33.47;;
65145;SDS011;51730;56.950;24.126;2022-10-16T15:44:06;56.83;;;32.60;;
65145;SDS011;51730;56.950;24.126;2022-10-16T15:46:33;58.75;;;35.38;;
65145;SDS011;51730;56.950;24.126;2022-10-16T15:49:00;61.40;;;35.88;;
65145;SDS011;51730;56.950;24.126;2022-10-16T15:51:27;59.00;;;34.05;;
65145;SDS011;51730;56.950;24.126;2022-10-16T15:53:56;65.28;;;35.10;;
65145;SDS011;51730;56.950;24.126;2022-10-16T15:56:23;59.35;;;33.90;;
65145;SDS011;51730;56.950;24.126;2022-10-16T15:58:52;58.03;;;35.05;;
65145;SDS011;51730;56.950;24.126;2022-10-16T16:01:20;57.22;;;33.35;;
65145;SDS011;51730;56.950;24.126;2022-10-16T16:03:47;58.15;;;34.15;;
65145;SDS011;51730;56.950;24.126;2022-10-16T16:06:21;53.85;;;32.95;;
65145;SDS011;51730;56.950;24.126;2022-10-16T16:08:51;55.85;;;34.30;;
65145;SDS011;51730;56.950;24.126;2022-10-16T16:11:19;55.75;;;32.17;;
65145;SDS011;51730;56.950;24.126;2022-10-16T16:13:46;49.55;;;30.45;;
65145;SDS011;51730;56.950;24.126;2022-10-16T16:16:14;51.17;;;31.27;;
65145;SDS011;51730;56.950;24.126;2022-10-16T16:18:42;48.38;;;28.98;;
65145;SDS011;51730;56.950;24.126;2022-10-16T16:21:09;46.40;;;28.63;;
65145;SDS011;51730;56.950;24.126;2022-10-16T16:23:37;44.50;;;28.65;;
65145;SDS011;51730;56.950;24.126;2022-10-16T16:26:09;43.13;;;27.83;;
65145;SDS011;51730;56.950;24.126;2022-10-16T16:28:40;47.85;;;29.77;;
65145;SDS011;51730;56.950;24.126;2022-10-16T16:31:08;48.28;;;30.67;;
65145;SDS011;51730;56.950;24.126;2022-10-16T16:33:35;66.57;;;40.50;;
65145;SDS011;51730;56.950;24.126;2022-10-16T16:36:03;50.63;;;32.13;;
65145;SDS011;51730;56.950;24.126;2022-10-16T16:38:39;52.95;;;32.60;;
65145;SDS011;51730;56.950;24.126;2022-10-16T16:43:46;45.28;;;29.63;;
65145;SDS011;51730;56.950;24.126;2022-10-16T16:46:14;51.83;;;30.15;;